Arthur, TN

8:13 AM EDT on September 22, 2014 (GMT -0400)
Washburn TN US | Change Station
CLOSE
Current Station
Personal Weather Station
Location: Washburn, TN
Elevation: 1450 ft
Nearby Weather Stations

Elev 1450 ft 36.29 °N, 83.61 °W | Updated 3 minutes ago

Clear
Clear
50.3 °F
Feels Like 50.3 °F
N
0.0
Wind Variable Wind from NNW
Gusts 0.0 mph

Today
High -- | Low -- °F
--% Chance of Precip.
Yesterday
High -- | Low -- °F
Precip. -- in
7:22 AM 7:31 PM
Waning Crescent, 3% visible
Pressure 30.15 in
Visibility 10.0 miles
Clouds Clear
Dew Point 45 °F
Humidity 83%
Rainfall 0.00 in
Snow Depth Not available.
UV 0 out of 12
Pollen 5.80 out of 12
Air Quality Not available.
Flu Activity Not available.
METAR K1A6 221155Z AUTO 00000KT 10SM CLR 10/09 A3015 RMK AO2 T00980093 10132 20096

More Conditions Fewer Conditions

Pressure 30.15 in
Visibility 10.0 miles
Clouds Clear
Dew Point 45 °F
Humidity 83%
Rainfall 0.00 in
Snow Depth Not available.
UV 0 out of 12
Pollen 5.80 out of 12
Air Quality Not available.
Flu Activity Not available.
METAR K1A6 221155Z AUTO 00000KT 10SM CLR 10/09 A3015 RMK AO2 T00980093 10132 20096

More Conditions Fewer Conditions

10-Day Weather Forecast

Almanac

Astronomy

Sep. 22, 2014 Rise Set
Actual Time 7:22 AM EDT 7:31 PM EDT
Civil Twilight 6:56 AM EDT 7:56 PM EDT
Nautical Twilight 6:26 AM EDT 8:26 PM EDT
Astronomical Twilight 5:55 AM EDT 8:57 PM EDT
Moon 5:51 AM EDT 6:37 PM EDT
Length of Visible Light 13h 00m
Length of Day
12h 08m
Tomorrow will be 2m 18s shorter.
Waning Crescent, 3% of the Moon is Illuminated
Today
Waning Crescent
Sep 24
New
Oct 1
First Quarter
Oct 8
Full
Oct 15
Last Quarter

Today's Extremes

State Highs State Lows

Community

WunderPhotos

Upload Photos

1,755,417 photos uploaded!

WunderBlogs® & News

Nearby

Snow Depth

Station Depth Elevation
No new snow has been reported.

Earthquake Activity

City Distance Mag. Time & Date
Sweetwater, Tennessee 72 miles 2.5 3:54 PM EDT
2014-09-20
Minimum magnitude displayed is 2.5.

Coastal Water Temperatures

Place Temperature
No Stations Reporting

Nearby Weather Stations